Hilltop Lakes, Texas
Current Conditions -  °F | °C
As of 6:55 PM on Wednesday 22 Oct 2014 (Local Time) from KCFD Reporting Station
Clear Clear  
Wind Chill: 72°   Ceiling: Unl
Heat Index: 72°   Visibility: 10mi
Dew Point: 58°   Wind: 0mph
Humidity: 62%   Direction: NA
Pressure: 30.08"   Gusts: NA
Location:  31.1118°N, 96.1332°W
Report Text: KCFD 222355Z AUTO 00000KT 10SM CLR 22/15 A3008 RMK AO2 T02210146 10274 20221
Loading
Personal Weather Stations






























Interactive Weather Map
Tropical Storm Tracking
New forecast layout! Learn more

10-Day Weather Forecast

Advertisements
Track Severe Weather on mobile